Aérodrome :
LOGIN :

S'inscrire | Disclaimer

   EN    FR    IT 

 










Légende :    VFR   VFR Marginal   IFR   IFR Intensif   IFR Très Intensif
Visi : 
Plafond : 
>= 8 km
>= 3000ft
5 à 8 km
1000 à 3000 ft
1500m à 5 km
500 à 1000 ft
800 à 1500m
200 à 500 ft
< 800m
< 200 ft
Symboles :   Orages  Brouillard  Fortes neiges  Fortes précipitations  Vent > 20 kt
SIGMETs :   Divers  Orages  Givrage  Turbulence  Onde Orograph.  Cendres Volcan.







- Altitude de l'aérodrome : 291 ft
- Code IATA : ORY
- Voir les cartes d'approche


LFPO - Paris-Orly

DERNIER METAR :
  • 190830Z 33005KT 280V020 6000 SCT007 BKN070 15/13 Q1007 TEMPO BKN009

METARs EXPIRÉS :
  • 190800Z 34005KT 300V010 6000 -RA SCT007 BKN066 14/13 Q1007 TEMPO BKN009
  • 190730Z 34005KT 310V010 7000 SCT007 SCT046 BKN260 14/13 Q1007 TEMPO BKN009
  • 190700Z 31004KT 250V360 7000 SCT007 SCT046 BKN260 13/13 Q1007 TEMPO BKN009
  • 190630Z 29003KT 7000 FEW006 SCT060 BKN260 13/12 Q1006 NOSIG
  • 190600Z VRB03KT 7000 FEW003 SCT060 BKN260 12/12 Q1006 NOSIG

TAF TAF LFPO
Valide du 19 à 06h jusqu'au 20 à 12h UTC


190500Z 1906/2012 33005KT 4000 BCFG SCT002 SCT050
PROB40
TEMPO 1906/1909 6000 BKN009
PROB30
TEMPO 1906/1907 0400 FG BKN002
BECMG 1909/1911 9999 BKN025
TEMPO 1911/1920 4000 -SHRA BKN025TCU
PROB40
TEMPO 1912/1919 36010G20KT 2000 TSRA BKN025CB
PROB30
TEMPO 2003/2006 BKN010
TEMPO 2011/2012 BKN040TCU
ATIS : +33 1 49 75 65 80
Pas de NOTAMs connus pour ce terrain.



MET'MAP, la Météo Aéronautique d'un coup d'oeil ! - Copyright ORBIFLY Décembre 2007 - Disclaimer

ORBIFLY MET'MAP TEAM :

Programmation & Développement : Alexandra Zaïnal
Conception & Développement : Baudouin d'Aumeries
Co-Programmation & Développement : Marc-Olivier Méhu
Soutien technique & logistique : Manuel Goepfert

Contact : metmap@orbifly.com




SOURCES & CREDITS :

   NOAA